sensor_id;sensor_type;location;lat;lon;timestamp;P1;durP1;ratioP1;P2;durP2;ratioP2
42514;SDS011;28144;49.920;18.730;2024-02-21T00:00:43;27.07;;;8.57;;
42514;SDS011;28144;49.920;18.730;2024-02-21T00:03:30;23.60;;;8.20;;
42514;SDS011;28144;49.920;18.730;2024-02-21T00:05:56;26.60;;;8.93;;
42514;SDS011;28144;49.920;18.730;2024-02-21T00:08:22;30.42;;;8.50;;
42514;SDS011;28144;49.920;18.730;2024-02-21T00:10:47;24.17;;;8.33;;
42514;SDS011;28144;49.920;18.730;2024-02-21T00:15:40;19.83;;;7.40;;
42514;SDS011;28144;49.920;18.730;2024-02-21T00:18:06;21.20;;;7.00;;
42514;SDS011;28144;49.920;18.730;2024-02-21T00:20:32;18.50;;;7.00;;
42514;SDS011;28144;49.920;18.730;2024-02-21T00:22:58;21.10;;;7.53;;
42514;SDS011;28144;49.920;18.730;2024-02-21T00:25:24;18.80;;;7.07;;
42514;SDS011;28144;49.920;18.730;2024-02-21T00:27:50;29.83;;;8.07;;
42514;SDS011;28144;49.920;18.730;2024-02-21T00:30:16;20.60;;;8.13;;
42514;SDS011;28144;49.920;18.730;2024-02-21T00:32:43;39.10;;;12.77;;
42514;SDS011;28144;49.920;18.730;2024-02-21T00:35:08;30.97;;;9.77;;
42514;SDS011;28144;49.920;18.730;2024-02-21T00:37:35;20.45;;;7.85;;
42514;SDS011;28144;49.920;18.730;2024-02-21T00:40:01;30.30;;;9.43;;
42514;SDS011;28144;49.920;18.730;2024-02-21T00:42:27;29.83;;;8.80;;
42514;SDS011;28144;49.920;18.730;2024-02-21T00:44:52;31.30;;;9.33;;
42514;SDS011;28144;49.920;18.730;2024-02-21T00:47:18;31.23;;;9.03;;
42514;SDS011;28144;49.920;18.730;2024-02-21T00:49:44;36.47;;;10.20;;
42514;SDS011;28144;49.920;18.730;2024-02-21T00:52:10;29.67;;;9.97;;
42514;SDS011;28144;49.920;18.730;2024-02-21T00:54:36;27.53;;;8.97;;
42514;SDS011;28144;49.920;18.730;2024-02-21T00:57:02;28.37;;;9.77;;
42514;SDS011;28144;49.920;18.730;2024-02-21T00:59:27;24.43;;;7.87;;
42514;SDS011;28144;49.920;18.730;2024-02-21T01:01:53;22.90;;;8.20;;
42514;SDS011;28144;49.920;18.730;2024-02-21T01:04:19;20.77;;;8.50;;
42514;SDS011;28144;49.920;18.730;2024-02-21T01:06:45;30.10;;;10.53;;
42514;SDS011;28144;49.920;18.730;2024-02-21T01:09:11;31.83;;;9.50;;
42514;SDS011;28144;49.920;18.730;2024-02-21T01:11:37;25.77;;;9.67;;
42514;SDS011;28144;49.920;18.730;2024-02-21T01:14:03;26.27;;;10.67;;
42514;SDS011;28144;49.920;18.730;2024-02-21T01:16:28;33.60;;;10.07;;
42514;SDS011;28144;49.920;18.730;2024-02-21T01:18:54;20.47;;;8.33;;
42514;SDS011;28144;49.920;18.730;2024-02-21T01:21:20;24.73;;;9.17;;
42514;SDS011;28144;49.920;18.730;2024-02-21T01:23:46;23.20;;;8.97;;
42514;SDS011;28144;49.920;18.730;2024-02-21T01:26:12;26.80;;;9.33;;
42514;SDS011;28144;49.920;18.730;2024-02-21T01:28:39;21.80;;;8.50;;
42514;SDS011;28144;49.920;18.730;2024-02-21T01:31:06;21.85;;;8.68;;
42514;SDS011;28144;49.920;18.730;2024-02-21T01:33:31;27.07;;;8.40;;
42514;SDS011;28144;49.920;18.730;2024-02-21T01:36:01;22.97;;;9.03;;
42514;SDS011;28144;49.920;18.730;2024-02-21T01:38:27;27.13;;;7.70;;
42514;SDS011;28144;49.920;18.730;2024-02-21T01:40:54;17.02;;;6.75;;
42514;SDS011;28144;49.920;18.730;2024-02-21T01:43:20;27.43;;;7.67;;
42514;SDS011;28144;49.920;18.730;2024-02-21T01:45:48;20.15;;;6.78;;
42514;SDS011;28144;49.920;18.730;2024-02-21T01:48:16;21.90;;;7.03;;
42514;SDS011;28144;49.920;18.730;2024-02-21T01:50:43;17.23;;;6.43;;
42514;SDS011;28144;49.920;18.730;2024-02-21T01:53:22;18.07;;;6.20;;
42514;SDS011;28144;49.920;18.730;2024-02-21T01:55:49;18.10;;;6.83;;
42514;SDS011;28144;49.920;18.730;2024-02-21T01:58:14;19.10;;;6.93;;
42514;SDS011;28144;49.920;18.730;2024-02-21T02:00:45;21.20;;;7.10;;
42514;SDS011;28144;49.920;18.730;2024-02-21T02:03:12;18.37;;;6.90;;
42514;SDS011;28144;49.920;18.730;2024-02-21T02:05:45;22.07;;;7.60;;
42514;SDS011;28144;49.920;18.730;2024-02-21T02:08:15;22.20;;;8.13;;
42514;SDS011;28144;49.920;18.730;2024-02-21T02:10:42;20.00;;;7.80;;
42514;SDS011;28144;49.920;18.730;2024-02-21T02:13:08;30.38;;;9.23;;
42514;SDS011;28144;49.920;18.730;2024-02-21T02:15:41;27.65;;;9.50;;
42514;SDS011;28144;49.920;18.730;2024-02-21T02:18:07;27.70;;;9.50;;
42514;SDS011;28144;49.920;18.730;2024-02-21T02:20:34;16.90;;;8.15;;
42514;SDS011;28144;49.920;18.730;2024-02-21T02:23:02;22.13;;;10.38;;
42514;SDS011;28144;49.920;18.730;2024-02-21T02:25:34;24.03;;;9.50;;
42514;SDS011;28144;49.920;18.730;2024-02-21T02:28:00;25.20;;;9.88;;
42514;SDS011;28144;49.920;18.730;2024-02-21T02:30:27;27.20;;;9.57;;
42514;SDS011;28144;49.920;18.730;2024-02-21T02:32:52;18.87;;;8.10;;
42514;SDS011;28144;49.920;18.730;2024-02-21T02:35:18;20.50;;;8.40;;
42514;SDS011;28144;49.920;18.730;2024-02-21T02:37:48;29.03;;;9.93;;
42514;SDS011;28144;49.920;18.730;2024-02-21T02:40:15;22.80;;;9.47;;
42514;SDS011;28144;49.920;18.730;2024-02-21T02:42:40;32.00;;;15.10;;
42514;SDS011;28144;49.920;18.730;2024-02-21T02:45:07;50.30;;;22.57;;
42514;SDS011;28144;49.920;18.730;2024-02-21T02:47:33;26.98;;;13.88;;
42514;SDS011;28144;49.920;18.730;2024-02-21T02:50:00;51.53;;;21.43;;
42514;SDS011;28144;49.920;18.730;2024-02-21T02:52:26;53.08;;;24.45;;
42514;SDS011;28144;49.920;18.730;2024-02-21T02:54:52;26.73;;;11.83;;
42514;SDS011;28144;49.920;18.730;2024-02-21T02:57:20;33.17;;;14.17;;
42514;SDS011;28144;49.920;18.730;2024-02-21T02:59:47;32.78;;;12.38;;
42514;SDS011;28144;49.920;18.730;2024-02-21T03:02:13;35.67;;;15.55;;
42514;SDS011;28144;49.920;18.730;2024-02-21T03:04:39;34.03;;;16.60;;
42514;SDS011;28144;49.920;18.730;2024-02-21T03:07:05;39.63;;;19.80;;
42514;SDS011;28144;49.920;18.730;2024-02-21T03:09:32;49.22;;;21.50;;
42514;SDS011;28144;49.920;18.730;2024-02-21T03:11:57;52.70;;;22.03;;
42514;SDS011;28144;49.920;18.730;2024-02-21T03:14:28;47.40;;;20.03;;
42514;SDS011;28144;49.920;18.730;2024-02-21T03:16:54;39.45;;;17.00;;
42514;SDS011;28144;49.920;18.730;2024-02-21T03:19:20;55.60;;;20.73;;
42514;SDS011;28144;49.920;18.730;2024-02-21T03:21:46;52.43;;;20.57;;
42514;SDS011;28144;49.920;18.730;2024-02-21T03:24:12;54.77;;;21.07;;
42514;SDS011;28144;49.920;18.730;2024-02-21T03:26:37;47.23;;;20.10;;
42514;SDS011;28144;49.920;18.730;2024-02-21T03:29:04;37.75;;;18.75;;
42514;SDS011;28144;49.920;18.730;2024-02-21T03:31:29;46.00;;;14.53;;
42514;SDS011;28144;49.920;18.730;2024-02-21T03:33:55;39.67;;;15.00;;
42514;SDS011;28144;49.920;18.730;2024-02-21T03:36:21;37.93;;;13.60;;
42514;SDS011;28144;49.920;18.730;2024-02-21T03:38:47;35.60;;;13.27;;
42514;SDS011;28144;49.920;18.730;2024-02-21T03:41:13;22.97;;;7.60;;
42514;SDS011;28144;49.920;18.730;2024-02-21T03:43:39;20.70;;;7.30;;
42514;SDS011;28144;49.920;18.730;2024-02-21T03:46:05;19.47;;;8.57;;
42514;SDS011;28144;49.920;18.730;2024-02-21T03:48:31;21.23;;;6.30;;
42514;SDS011;28144;49.920;18.730;2024-02-21T03:50:57;21.87;;;5.90;;
42514;SDS011;28144;49.920;18.730;2024-02-21T03:53:23;17.75;;;5.90;;
42514;SDS011;28144;49.920;18.730;2024-02-21T03:55:49;15.80;;;5.83;;
42514;SDS011;28144;49.920;18.730;2024-02-21T03:58:15;14.50;;;5.47;;
42514;SDS011;28144;49.920;18.730;2024-02-21T04:00:41;15.23;;;5.60;;
42514;SDS011;28144;49.920;18.730;2024-02-21T04:03:07;14.05;;;5.03;;
42514;SDS011;28144;49.920;18.730;2024-02-21T04:05:33;15.87;;;4.80;;
42514;SDS011;28144;49.920;18.730;2024-02-21T04:07:59;16.53;;;5.87;;
42514;SDS011;28144;49.920;18.730;2024-02-21T04:10:24;9.53;;;4.60;;
42514;SDS011;28144;49.920;18.730;2024-02-21T04:12:50;19.40;;;5.00;;
42514;SDS011;28144;49.920;18.730;2024-02-21T04:15:16;11.73;;;4.27;;
42514;SDS011;28144;49.920;18.730;2024-02-21T04:17:42;15.85;;;4.43;;
42514;SDS011;28144;49.920;18.730;2024-02-21T04:20:13;10.03;;;4.03;;
42514;SDS011;28144;49.920;18.730;2024-02-21T04:22:40;11.53;;;4.00;;
42514;SDS011;28144;49.920;18.730;2024-02-21T04:25:08;9.90;;;4.17;;
42514;SDS011;28144;49.920;18.730;2024-02-21T04:27:34;16.27;;;4.40;;
42514;SDS011;28144;49.920;18.730;2024-02-21T04:29:59;12.57;;;4.20;;
42514;SDS011;28144;49.920;18.730;2024-02-21T04:32:25;10.67;;;4.67;;
42514;SDS011;28144;49.920;18.730;2024-02-21T04:34:52;12.50;;;4.18;;
42514;SDS011;28144;49.920;18.730;2024-02-21T04:37:19;16.55;;;5.20;;
42514;SDS011;28144;49.920;18.730;2024-02-21T04:39:45;16.08;;;5.15;;
42514;SDS011;28144;49.920;18.730;2024-02-21T04:42:12;16.38;;;4.28;;
42514;SDS011;28144;49.920;18.730;2024-02-21T04:44:37;12.47;;;4.90;;
42514;SDS011;28144;49.920;18.730;2024-02-21T04:47:03;22.83;;;4.93;;
42514;SDS011;28144;49.920;18.730;2024-02-21T04:49:29;19.47;;;5.60;;
42514;SDS011;28144;49.920;18.730;2024-02-21T04:51:56;16.42;;;5.57;;
42514;SDS011;28144;49.920;18.730;2024-02-21T04:54:21;21.40;;;5.03;;
42514;SDS011;28144;49.920;18.730;2024-02-21T04:56:47;17.83;;;6.43;;
42514;SDS011;28144;49.920;18.730;2024-02-21T04:59:13;18.50;;;5.87;;
42514;SDS011;28144;49.920;18.730;2024-02-21T05:01:39;19.48;;;6.78;;
42514;SDS011;28144;49.920;18.730;2024-02-21T05:04:04;21.77;;;6.07;;
42514;SDS011;28144;49.920;18.730;2024-02-21T05:06:30;18.88;;;6.00;;
42514;SDS011;28144;49.920;18.730;2024-02-21T05:08:56;13.50;;;5.57;;
42514;SDS011;28144;49.920;18.730;2024-02-21T05:13:49;16.63;;;4.38;;
42514;SDS011;28144;49.920;18.730;2024-02-21T05:16:16;15.85;;;5.43;;
42514;SDS011;28144;49.920;18.730;2024-02-21T05:18:41;14.93;;;5.40;;
42514;SDS011;28144;49.920;18.730;2024-02-21T05:21:08;14.02;;;4.70;;
42514;SDS011;28144;49.920;18.730;2024-02-21T05:23:34;11.97;;;4.23;;
42514;SDS011;28144;49.920;18.730;2024-02-21T05:26:00;14.10;;;5.55;;
42514;SDS011;28144;49.920;18.730;2024-02-21T05:28:26;18.88;;;6.05;;
42514;SDS011;28144;49.920;18.730;2024-02-21T05:30:52;19.92;;;6.88;;
42514;SDS011;28144;49.920;18.730;2024-02-21T05:33:17;21.77;;;6.53;;
42514;SDS011;28144;49.920;18.730;2024-02-21T05:35:47;20.37;;;7.87;;
42514;SDS011;28144;49.920;18.730;2024-02-21T05:38:14;17.83;;;7.20;;
42514;SDS011;28144;49.920;18.730;2024-02-21T05:40:40;27.17;;;8.88;;
42514;SDS011;28144;49.920;18.730;2024-02-21T05:43:07;25.75;;;8.15;;
42514;SDS011;28144;49.920;18.730;2024-02-21T05:45:33;25.08;;;9.38;;
42514;SDS011;28144;49.920;18.730;2024-02-21T05:47:59;29.25;;;9.80;;
42514;SDS011;28144;49.920;18.730;2024-02-21T05:50:26;32.78;;;10.40;;
42514;SDS011;28144;49.920;18.730;2024-02-21T05:52:56;18.33;;;8.70;;
42514;SDS011;28144;49.920;18.730;2024-02-21T05:55:22;26.20;;;8.57;;
42514;SDS011;28144;49.920;18.730;2024-02-21T05:57:48;21.20;;;8.20;;
42514;SDS011;28144;49.920;18.730;2024-02-21T06:00:14;26.23;;;8.15;;
42514;SDS011;28144;49.920;18.730;2024-02-21T06:02:41;18.25;;;7.82;;
42514;SDS011;28144;49.920;18.730;2024-02-21T06:05:07;28.83;;;8.70;;
42514;SDS011;28144;49.920;18.730;2024-02-21T06:07:34;22.60;;;7.85;;
42514;SDS011;28144;49.920;18.730;2024-02-21T06:10:01;24.98;;;8.40;;
42514;SDS011;28144;49.920;18.730;2024-02-21T06:14:53;22.20;;;7.32;;
42514;SDS011;28144;49.920;18.730;2024-02-21T06:17:18;29.57;;;8.83;;
42514;SDS011;28144;49.920;18.730;2024-02-21T06:19:44;30.45;;;9.73;;
42514;SDS011;28144;49.920;18.730;2024-02-21T06:22:10;31.50;;;9.97;;
42514;SDS011;28144;49.920;18.730;2024-02-21T06:24:37;20.73;;;8.98;;
42514;SDS011;28144;49.920;18.730;2024-02-21T06:27:03;23.58;;;8.85;;
42514;SDS011;28144;49.920;18.730;2024-02-21T06:29:32;27.00;;;10.27;;
42514;SDS011;28144;49.920;18.730;2024-02-21T06:31:58;25.75;;;8.82;;
42514;SDS011;28144;49.920;18.730;2024-02-21T06:34:24;25.90;;;8.13;;
42514;SDS011;28144;49.920;18.730;2024-02-21T06:36:50;26.17;;;8.93;;
42514;SDS011;28144;49.920;18.730;2024-02-21T06:39:16;21.58;;;8.05;;
42514;SDS011;28144;49.920;18.730;2024-02-21T06:41:42;28.23;;;9.43;;
42514;SDS011;28144;49.920;18.730;2024-02-21T06:44:08;30.85;;;9.60;;
42514;SDS011;28144;49.920;18.730;2024-02-21T06:46:34;29.53;;;9.10;;
42514;SDS011;28144;49.920;18.730;2024-02-21T06:49:00;33.05;;;10.00;;
42514;SDS011;28144;49.920;18.730;2024-02-21T06:51:26;28.05;;;9.48;;
42514;SDS011;28144;49.920;18.730;2024-02-21T06:53:53;25.53;;;8.30;;
42514;SDS011;28144;49.920;18.730;2024-02-21T06:56:18;23.13;;;7.67;;
42514;SDS011;28144;49.920;18.730;2024-02-21T06:58:44;22.10;;;7.22;;
42514;SDS011;28144;49.920;18.730;2024-02-21T07:01:10;22.20;;;7.77;;
42514;SDS011;28144;49.920;18.730;2024-02-21T07:03:36;21.88;;;8.57;;
42514;SDS011;28144;49.920;18.730;2024-02-21T07:06:02;23.53;;;8.73;;
42514;SDS011;28144;49.920;18.730;2024-02-21T07:08:30;23.00;;;8.03;;
42514;SDS011;28144;49.920;18.730;2024-02-21T07:10:56;21.17;;;8.33;;
42514;SDS011;28144;49.920;18.730;2024-02-21T07:13:22;20.87;;;7.93;;
42514;SDS011;28144;49.920;18.730;2024-02-21T07:15:48;24.15;;;7.63;;
42514;SDS011;28144;49.920;18.730;2024-02-21T07:18:14;27.73;;;7.78;;
42514;SDS011;28144;49.920;18.730;2024-02-21T07:20:40;23.37;;;7.70;;
42514;SDS011;28144;49.920;18.730;2024-02-21T07:23:07;21.33;;;6.88;;
42514;SDS011;28144;49.920;18.730;2024-02-21T07:25:33;19.27;;;7.03;;
42514;SDS011;28144;49.920;18.730;2024-02-21T07:27:59;19.23;;;6.63;;
42514;SDS011;28144;49.920;18.730;2024-02-21T07:30:25;20.67;;;7.50;;
42514;SDS011;28144;49.920;18.730;2024-02-21T07:32:51;22.50;;;7.80;;
42514;SDS011;28144;49.920;18.730;2024-02-21T07:35:19;16.90;;;7.03;;
42514;SDS011;28144;49.920;18.730;2024-02-21T07:37:45;21.50;;;6.27;;
42514;SDS011;28144;49.920;18.730;2024-02-21T07:40:14;19.13;;;7.50;;
42514;SDS011;28144;49.920;18.730;2024-02-21T07:42:41;19.67;;;8.13;;
42514;SDS011;28144;49.920;18.730;2024-02-21T07:45:08;18.70;;;6.95;;
42514;SDS011;28144;49.920;18.730;2024-02-21T07:47:34;24.70;;;8.10;;
42514;SDS011;28144;49.920;18.730;2024-02-21T07:50:01;18.08;;;6.75;;
42514;SDS011;28144;49.920;18.730;2024-02-21T07:52:27;19.47;;;7.60;;
42514;SDS011;28144;49.920;18.730;2024-02-21T07:54:53;14.70;;;6.77;;
42514;SDS011;28144;49.920;18.730;2024-02-21T07:57:19;28.33;;;9.30;;
42514;SDS011;28144;49.920;18.730;2024-02-21T07:59:45;24.23;;;7.47;;
42514;SDS011;28144;49.920;18.730;2024-02-21T08:02:16;21.27;;;7.30;;
42514;SDS011;28144;49.920;18.730;2024-02-21T08:04:41;16.63;;;7.03;;
42514;SDS011;28144;49.920;18.730;2024-02-21T08:07:08;20.52;;;7.05;;
42514;SDS011;28144;49.920;18.730;2024-02-21T08:09:34;24.70;;;8.45;;
42514;SDS011;28144;49.920;18.730;2024-02-21T08:12:03;23.93;;;7.43;;
42514;SDS011;28144;49.920;18.730;2024-02-21T08:14:29;25.70;;;8.10;;
42514;SDS011;28144;49.920;18.730;2024-02-21T08:16:55;16.30;;;6.23;;
42514;SDS011;28144;49.920;18.730;2024-02-21T08:19:21;20.47;;;6.77;;
42514;SDS011;28144;49.920;18.730;2024-02-21T08:21:48;24.38;;;6.43;;
42514;SDS011;28144;49.920;18.730;2024-02-21T08:24:13;25.87;;;7.20;;
42514;SDS011;28144;49.920;18.730;2024-02-21T08:26:40;16.17;;;5.03;;
42514;SDS011;28144;49.920;18.730;2024-02-21T08:29:12;18.03;;;5.17;;
42514;SDS011;28144;49.920;18.730;2024-02-21T08:31:38;17.83;;;5.63;;
42514;SDS011;28144;49.920;18.730;2024-02-21T08:34:04;24.93;;;6.40;;
42514;SDS011;28144;49.920;18.730;2024-02-21T08:36:30;20.97;;;6.57;;
42514;SDS011;28144;49.920;18.730;2024-02-21T08:38:57;20.43;;;5.20;;
42514;SDS011;28144;49.920;18.730;2024-02-21T08:41:24;17.02;;;4.75;;
42514;SDS011;28144;49.920;18.730;2024-02-21T08:43:52;14.40;;;5.32;;
42514;SDS011;28144;49.920;18.730;2024-02-21T08:46:25;19.13;;;5.00;;
42514;SDS011;28144;49.920;18.730;2024-02-21T08:48:52;15.77;;;4.40;;
42514;SDS011;28144;49.920;18.730;2024-02-21T08:51:18;13.23;;;4.15;;
42514;SDS011;28144;49.920;18.730;2024-02-21T08:53:44;16.03;;;4.33;;
42514;SDS011;28144;49.920;18.730;2024-02-21T08:58:36;10.73;;;3.77;;
42514;SDS011;28144;49.920;18.730;2024-02-21T09:01:03;19.27;;;4.60;;
42514;SDS011;28144;49.920;18.730;2024-02-21T09:03:32;18.98;;;4.78;;
42514;SDS011;28144;49.920;18.730;2024-02-21T09:05:59;12.07;;;4.53;;
42514;SDS011;28144;49.920;18.730;2024-02-21T09:08:25;14.82;;;4.82;;
42514;SDS011;28144;49.920;18.730;2024-02-21T09:10:52;12.68;;;3.65;;
42514;SDS011;28144;49.920;18.730;2024-02-21T09:13:18;14.13;;;3.78;;
42514;SDS011;28144;49.920;18.730;2024-02-21T09:15:44;13.90;;;3.72;;
42514;SDS011;28144;49.920;18.730;2024-02-21T09:18:10;17.63;;;4.57;;
42514;SDS011;28144;49.920;18.730;2024-02-21T09:20:36;15.05;;;4.10;;
42514;SDS011;28144;49.920;18.730;2024-02-21T09:23:02;11.80;;;4.20;;
42514;SDS011;28144;49.920;18.730;2024-02-21T09:25:28;10.25;;;3.58;;
42514;SDS011;28144;49.920;18.730;2024-02-21T09:27:53;15.20;;;3.80;;
42514;SDS011;28144;49.920;18.730;2024-02-21T09:30:20;19.23;;;4.90;;
42514;SDS011;28144;49.920;18.730;2024-02-21T09:32:46;11.48;;;3.45;;
42514;SDS011;28144;49.920;18.730;2024-02-21T09:35:12;17.00;;;3.30;;
42514;SDS011;28144;49.920;18.730;2024-02-21T09:37:38;14.50;;;3.20;;
42514;SDS011;28144;49.920;18.730;2024-02-21T09:40:05;15.18;;;3.65;;
42514;SDS011;28144;49.920;18.730;2024-02-21T09:42:38;12.85;;;3.92;;
42514;SDS011;28144;49.920;18.730;2024-02-21T09:45:23;11.10;;;3.97;;
42514;SDS011;28144;49.920;18.730;2024-02-21T09:50:30;12.53;;;3.00;;
42514;SDS011;28144;49.920;18.730;2024-02-21T09:52:57;12.43;;;3.83;;
42514;SDS011;28144;49.920;18.730;2024-02-21T09:55:24;14.98;;;4.70;;
42514;SDS011;28144;49.920;18.730;2024-02-21T09:57:50;11.23;;;3.70;;
42514;SDS011;28144;49.920;18.730;2024-02-21T10:00:17;12.05;;;3.75;;
42514;SDS011;28144;49.920;18.730;2024-02-21T10:02:49;11.00;;;3.00;;
42514;SDS011;28144;49.920;18.730;2024-02-21T10:05:16;11.93;;;4.63;;
42514;SDS011;28144;49.920;18.730;2024-02-21T10:07:43;12.18;;;3.33;;
42514;SDS011;28144;49.920;18.730;2024-02-21T10:10:09;13.15;;;3.22;;
42514;SDS011;28144;49.920;18.730;2024-02-21T10:12:35;15.53;;;3.87;;
42514;SDS011;28144;49.920;18.730;2024-02-21T10:15:04;10.67;;;2.90;;
42514;SDS011;28144;49.920;18.730;2024-02-21T10:17:34;9.47;;;3.17;;
42514;SDS011;28144;49.920;18.730;2024-02-21T10:20:08;12.53;;;3.00;;
42514;SDS011;28144;49.920;18.730;2024-02-21T10:22:35;11.93;;;3.70;;
42514;SDS011;28144;49.920;18.730;2024-02-21T10:25:12;11.63;;;2.77;;
42514;SDS011;28144;49.920;18.730;2024-02-21T10:27:38;14.00;;;3.10;;
42514;SDS011;28144;49.920;18.730;2024-02-21T10:30:05;10.25;;;3.47;;
42514;SDS011;28144;49.920;18.730;2024-02-21T10:32:34;12.33;;;3.70;;
42514;SDS011;28144;49.920;18.730;2024-02-21T10:35:04;18.30;;;3.20;;
42514;SDS011;28144;49.920;18.730;2024-02-21T10:37:30;8.57;;;2.40;;
42514;SDS011;28144;49.920;18.730;2024-02-21T10:39:56;15.13;;;3.47;;
42514;SDS011;28144;49.920;18.730;2024-02-21T10:42:22;16.30;;;3.50;;
42514;SDS011;28144;49.920;18.730;2024-02-21T10:44:50;8.87;;;3.10;;
42514;SDS011;28144;49.920;18.730;2024-02-21T10:47:19;8.93;;;2.93;;
42514;SDS011;28144;49.920;18.730;2024-02-21T10:49:49;15.07;;;5.13;;
42514;SDS011;28144;49.920;18.730;2024-02-21T10:54:49;12.17;;;2.90;;
42514;SDS011;28144;49.920;18.730;2024-02-21T10:57:22;9.27;;;3.20;;
42514;SDS011;28144;49.920;18.730;2024-02-21T10:59:48;7.65;;;2.63;;
42514;SDS011;28144;49.920;18.730;2024-02-21T11:02:14;13.90;;;3.40;;
42514;SDS011;28144;49.920;18.730;2024-02-21T11:07:06;12.20;;;3.23;;
42514;SDS011;28144;49.920;18.730;2024-02-21T11:09:33;10.48;;;2.47;;
42514;SDS011;28144;49.920;18.730;2024-02-21T11:12:01;7.82;;;2.80;;
42514;SDS011;28144;49.920;18.730;2024-02-21T11:14:29;12.10;;;3.30;;
42514;SDS011;28144;49.920;18.730;2024-02-21T11:16:57;12.10;;;3.33;;
42514;SDS011;28144;49.920;18.730;2024-02-21T11:19:30;15.52;;;3.28;;
42514;SDS011;28144;49.920;18.730;2024-02-21T11:21:56;11.10;;;3.00;;
42514;SDS011;28144;49.920;18.730;2024-02-21T11:24:30;13.00;;;3.30;;
42514;SDS011;28144;49.920;18.730;2024-02-21T11:26:56;9.70;;;3.07;;
42514;SDS011;28144;49.920;18.730;2024-02-21T11:29:33;12.17;;;3.27;;
42514;SDS011;28144;49.920;18.730;2024-02-21T11:32:17;10.43;;;3.00;;
42514;SDS011;28144;49.920;18.730;2024-02-21T11:35:00;12.47;;;3.67;;
42514;SDS011;28144;49.920;18.730;2024-02-21T11:37:27;15.10;;;5.03;;
42514;SDS011;28144;49.920;18.730;2024-02-21T11:39:57;13.47;;;4.40;;
42514;SDS011;28144;49.920;18.730;2024-02-21T11:42:24;17.17;;;4.17;;
42514;SDS011;28144;49.920;18.730;2024-02-21T11:44:51;10.47;;;4.07;;
42514;SDS011;28144;49.920;18.730;2024-02-21T11:47:17;10.32;;;3.40;;
42514;SDS011;28144;49.920;18.730;2024-02-21T11:49:47;17.77;;;4.00;;
42514;SDS011;28144;49.920;18.730;2024-02-21T11:52:20;10.23;;;4.17;;
42514;SDS011;28144;49.920;18.730;2024-02-21T11:54:48;17.37;;;4.40;;
42514;SDS011;28144;49.920;18.730;2024-02-21T11:57:13;14.17;;;3.57;;
42514;SDS011;28144;49.920;18.730;2024-02-21T11:59:39;12.33;;;3.93;;
42514;SDS011;28144;49.920;18.730;2024-02-21T12:02:06;13.18;;;3.72;;
42514;SDS011;28144;49.920;18.730;2024-02-21T12:04:32;17.85;;;5.80;;
42514;SDS011;28144;49.920;18.730;2024-02-21T12:06:58;12.13;;;3.87;;
42514;SDS011;28144;49.920;18.730;2024-02-21T12:09:24;18.58;;;4.70;;
42514;SDS011;28144;49.920;18.730;2024-02-21T12:12:04;12.82;;;3.45;;
42514;SDS011;28144;49.920;18.730;2024-02-21T12:14:31;16.07;;;4.13;;
42514;SDS011;28144;49.920;18.730;2024-02-21T12:16:58;15.57;;;4.20;;
42514;SDS011;28144;49.920;18.730;2024-02-21T12:19:25;16.87;;;4.13;;
42514;SDS011;28144;49.920;18.730;2024-02-21T12:21:50;14.27;;;3.77;;
42514;SDS011;28144;49.920;18.730;2024-02-21T12:24:24;19.52;;;4.20;;
42514;SDS011;28144;49.920;18.730;2024-02-21T12:26:51;15.63;;;4.50;;
42514;SDS011;28144;49.920;18.730;2024-02-21T12:29:20;15.33;;;4.57;;
42514;SDS011;28144;49.920;18.730;2024-02-21T12:31:46;13.35;;;4.00;;
42514;SDS011;28144;49.920;18.730;2024-02-21T12:34:13;18.83;;;5.00;;
42514;SDS011;28144;49.920;18.730;2024-02-21T12:36:45;16.20;;;4.87;;
42514;SDS011;28144;49.920;18.730;2024-02-21T12:39:12;17.67;;;4.57;;
42514;SDS011;28144;49.920;18.730;2024-02-21T12:41:38;21.05;;;5.20;;
42514;SDS011;28144;49.920;18.730;2024-02-21T12:44:06;13.80;;;4.53;;
42514;SDS011;28144;49.920;18.730;2024-02-21T12:46:36;11.73;;;4.43;;
42514;SDS011;28144;49.920;18.730;2024-02-21T12:49:03;23.35;;;4.85;;
42514;SDS011;28144;49.920;18.730;2024-02-21T12:51:32;14.88;;;4.72;;
42514;SDS011;28144;49.920;18.730;2024-02-21T12:53:58;17.73;;;4.90;;
42514;SDS011;28144;49.920;18.730;2024-02-21T12:56:24;12.80;;;4.25;;
42514;SDS011;28144;49.920;18.730;2024-02-21T12:58:52;10.83;;;4.30;;
42514;SDS011;28144;49.920;18.730;2024-02-21T13:01:18;200.50;;;12.45;;
42514;SDS011;28144;49.920;18.730;2024-02-21T13:03:44;13.57;;;4.65;;
42514;SDS011;28144;49.920;18.730;2024-02-21T13:06:11;18.00;;;4.53;;
42514;SDS011;28144;49.920;18.730;2024-02-21T13:08:38;15.95;;;7.72;;
42514;SDS011;28144;49.920;18.730;2024-02-21T13:11:04;9.90;;;4.17;;
42514;SDS011;28144;49.920;18.730;2024-02-21T13:13:30;13.05;;;4.30;;
42514;SDS011;28144;49.920;18.730;2024-02-21T13:15:56;15.20;;;4.67;;
42514;SDS011;28144;49.920;18.730;2024-02-21T13:18:23;13.90;;;4.63;;
42514;SDS011;28144;49.920;18.730;2024-02-21T13:20:48;18.90;;;4.60;;
42514;SDS011;28144;49.920;18.730;2024-02-21T13:23:22;16.60;;;4.50;;
42514;SDS011;28144;49.920;18.730;2024-02-21T13:25:47;16.57;;;5.70;;
42514;SDS011;28144;49.920;18.730;2024-02-21T13:28:14;14.60;;;5.57;;
42514;SDS011;28144;49.920;18.730;2024-02-21T13:30:42;12.37;;;4.90;;
42514;SDS011;28144;49.920;18.730;2024-02-21T13:33:08;17.40;;;5.20;;
42514;SDS011;28144;49.920;18.730;2024-02-21T13:35:35;15.93;;;4.80;;
42514;SDS011;28144;49.920;18.730;2024-02-21T13:40:28;19.67;;;5.55;;
42514;SDS011;28144;49.920;18.730;2024-02-21T13:42:54;18.40;;;5.60;;
42514;SDS011;28144;49.920;18.730;2024-02-21T13:45:20;15.48;;;4.78;;
42514;SDS011;28144;49.920;18.730;2024-02-21T13:47:46;14.82;;;4.53;;
42514;SDS011;28144;49.920;18.730;2024-02-21T13:50:13;20.03;;;6.97;;
42514;SDS011;28144;49.920;18.730;2024-02-21T13:52:40;18.08;;;5.60;;
42514;SDS011;28144;49.920;18.730;2024-02-21T13:55:06;15.85;;;4.78;;
42514;SDS011;28144;49.920;18.730;2024-02-21T13:57:38;12.63;;;4.90;;
42514;SDS011;28144;49.920;18.730;2024-02-21T14:00:03;13.17;;;3.90;;
42514;SDS011;28144;49.920;18.730;2024-02-21T14:02:30;15.23;;;5.28;;
42514;SDS011;28144;49.920;18.730;2024-02-21T14:04:56;14.93;;;4.70;;
42514;SDS011;28144;49.920;18.730;2024-02-21T14:07:22;15.00;;;6.00;;
42514;SDS011;28144;49.920;18.730;2024-02-21T14:09:47;15.23;;;5.30;;
42514;SDS011;28144;49.920;18.730;2024-02-21T14:12:13;8.77;;;3.30;;
42514;SDS011;28144;49.920;18.730;2024-02-21T14:14:43;10.37;;;3.17;;
42514;SDS011;28144;49.920;18.730;2024-02-21T14:17:09;12.70;;;3.90;;
42514;SDS011;28144;49.920;18.730;2024-02-21T14:19:35;8.93;;;3.40;;
42514;SDS011;28144;49.920;18.730;2024-02-21T14:22:01;12.68;;;3.42;;
42514;SDS011;28144;49.920;18.730;2024-02-21T14:24:29;15.95;;;4.45;;
42514;SDS011;28144;49.920;18.730;2024-02-21T14:26:55;11.53;;;3.70;;
42514;SDS011;28144;49.920;18.730;2024-02-21T14:29:21;10.30;;;3.90;;
42514;SDS011;28144;49.920;18.730;2024-02-21T14:31:47;17.40;;;4.55;;
42514;SDS011;28144;49.920;18.730;2024-02-21T14:34:13;13.77;;;4.33;;
42514;SDS011;28144;49.920;18.730;2024-02-21T14:36:39;14.63;;;4.57;;
42514;SDS011;28144;49.920;18.730;2024-02-21T14:39:06;14.10;;;5.13;;